sensor_id;sensor_type;location;lat;lon;timestamp;pressure;altitude;pressure_sealevel;temperature;humidity
18795;BME280;29610;49.022;12.114;2023-04-28T00:01:32;97748.53;;;10.60;100.00
18795;BME280;29610;49.022;12.114;2023-04-28T00:04:24;97741.84;;;10.58;100.00
18795;BME280;29610;49.022;12.114;2023-04-28T00:07:15;97739.13;;;10.58;100.00
18795;BME280;29610;49.022;12.114;2023-04-28T00:10:05;97734.47;;;10.58;100.00
18795;BME280;29610;49.022;12.114;2023-04-28T00:12:54;97729.19;;;10.62;100.00
18795;BME280;29610;49.022;12.114;2023-04-28T00:15:43;97727.13;;;10.67;100.00
18795;BME280;29610;49.022;12.114;2023-04-28T00:18:32;97729.38;;;10.65;100.00
18795;BME280;29610;49.022;12.114;2023-04-28T00:21:21;97732.88;;;10.66;100.00
18795;BME280;29610;49.022;12.114;2023-04-28T00:24:12;97727.28;;;10.62;100.00
18795;BME280;29610;49.022;12.114;2023-04-28T00:27:01;97724.09;;;10.69;100.00
18795;BME280;29610;49.022;12.114;2023-04-28T00:29:50;97723.13;;;10.65;100.00
18795;BME280;29610;49.022;12.114;2023-04-28T00:32:39;97719.09;;;10.71;100.00
18795;BME280;29610;49.022;12.114;2023-04-28T00:35:28;97721.38;;;10.69;100.00
18795;BME280;29610;49.022;12.114;2023-04-28T00:38:17;97719.63;;;10.64;100.00
18795;BME280;29610;49.022;12.114;2023-04-28T00:41:10;97725.34;;;10.63;100.00
18795;BME280;29610;49.022;12.114;2023-04-28T00:43:59;97722.47;;;10.68;100.00
18795;BME280;29610;49.022;12.114;2023-04-28T00:46:48;97721.22;;;10.65;100.00
18795;BME280;29610;49.022;12.114;2023-04-28T00:49:38;97718.00;;;10.63;100.00
18795;BME280;29610;49.022;12.114;2023-04-28T00:52:28;97720.88;;;10.67;100.00
18795;BME280;29610;49.022;12.114;2023-04-28T00:55:18;97727.94;;;10.59;100.00
18795;BME280;29610;49.022;12.114;2023-04-28T00:58:09;97735.28;;;10.59;100.00
18795;BME280;29610;49.022;12.114;2023-04-28T01:01:02;97725.69;;;10.53;100.00
18795;BME280;29610;49.022;12.114;2023-04-28T01:03:52;97726.97;;;10.55;100.00
18795;BME280;29610;49.022;12.114;2023-04-28T01:06:43;97703.00;;;10.40;100.00
18795;BME280;29610;49.022;12.114;2023-04-28T01:09:33;97695.97;;;10.48;100.00
18795;BME280;29610;49.022;12.114;2023-04-28T01:12:22;97705.69;;;10.49;100.00
18795;BME280;29610;49.022;12.114;2023-04-28T01:15:17;97701.25;;;10.53;100.00
18795;BME280;29610;49.022;12.114;2023-04-28T01:18:12;97694.50;;;10.50;100.00
18795;BME280;29610;49.022;12.114;2023-04-28T01:21:02;97696.75;;;10.57;100.00
18795;BME280;29610;49.022;12.114;2023-04-28T01:23:53;97696.91;;;10.60;100.00
18795;BME280;29610;49.022;12.114;2023-04-28T01:26:41;97700.88;;;10.63;100.00
18795;BME280;29610;49.022;12.114;2023-04-28T01:29:31;97695.16;;;10.56;100.00
18795;BME280;29610;49.022;12.114;2023-04-28T01:32:20;97701.06;;;10.41;100.00
18795;BME280;29610;49.022;12.114;2023-04-28T01:35:09;97707.97;;;10.47;100.00
18795;BME280;29610;49.022;12.114;2023-04-28T01:37:58;97702.50;;;10.55;100.00
18795;BME280;29610;49.022;12.114;2023-04-28T01:40:48;97701.72;;;10.55;100.00
18795;BME280;29610;49.022;12.114;2023-04-28T01:43:38;97693.38;;;10.60;100.00
18795;BME280;29610;49.022;12.114;2023-04-28T01:46:27;97686.19;;;10.55;100.00
18795;BME280;29610;49.022;12.114;2023-04-28T01:49:17;97687.81;;;10.56;100.00
18795;BME280;29610;49.022;12.114;2023-04-28T01:52:07;97686.19;;;10.55;100.00
18795;BME280;29610;49.022;12.114;2023-04-28T01:54:56;97685.88;;;10.57;100.00
18795;BME280;29610;49.022;12.114;2023-04-28T01:57:47;97689.41;;;10.57;100.00
18795;BME280;29610;49.022;12.114;2023-04-28T02:00:37;97686.38;;;10.59;100.00
18795;BME280;29610;49.022;12.114;2023-04-28T02:03:27;97684.78;;;10.58;100.00
18795;BME280;29610;49.022;12.114;2023-04-28T02:06:17;97682.84;;;10.58;100.00
18795;BME280;29610;49.022;12.114;2023-04-28T02:09:06;97676.44;;;10.63;100.00
18795;BME280;29610;49.022;12.114;2023-04-28T02:11:54;97682.72;;;10.55;100.00
18795;BME280;29610;49.022;12.114;2023-04-28T02:14:45;97683.16;;;10.57;100.00
18795;BME280;29610;49.022;12.114;2023-04-28T02:17:34;97671.00;;;10.63;100.00
18795;BME280;29610;49.022;12.114;2023-04-28T02:20:22;97665.91;;;10.53;100.00
18795;BME280;29610;49.022;12.114;2023-04-28T02:23:12;97659.50;;;10.49;100.00
18795;BME280;29610;49.022;12.114;2023-04-28T02:26:01;97660.16;;;10.46;100.00
18795;BME280;29610;49.022;12.114;2023-04-28T02:28:51;97666.69;;;10.53;100.00
18795;BME280;29610;49.022;12.114;2023-04-28T02:31:41;97663.97;;;10.62;100.00
18795;BME280;29610;49.022;12.114;2023-04-28T02:34:31;97659.03;;;10.55;100.00
18795;BME280;29610;49.022;12.114;2023-04-28T02:37:21;97654.41;;;10.47;100.00
18795;BME280;29610;49.022;12.114;2023-04-28T02:40:12;97663.69;;;10.38;100.00
18795;BME280;29610;49.022;12.114;2023-04-28T02:43:00;97661.44;;;10.48;100.00
18795;BME280;29610;49.022;12.114;2023-04-28T02:45:49;97660.47;;;10.44;100.00
18795;BME280;29610;49.022;12.114;2023-04-28T02:48:40;97659.22;;;10.42;100.00
18795;BME280;29610;49.022;12.114;2023-04-28T02:51:32;97657.31;;;10.33;100.00
18795;BME280;29610;49.022;12.114;2023-04-28T02:54:21;97662.41;;;10.35;100.00
18795;BME280;29610;49.022;12.114;2023-04-28T02:57:15;97669.59;;;10.40;100.00
18795;BME280;29610;49.022;12.114;2023-04-28T03:00:06;97663.69;;;10.29;100.00
18795;BME280;29610;49.022;12.114;2023-04-28T03:03:03;97648.03;;;10.34;100.00
18795;BME280;29610;49.022;12.114;2023-04-28T03:05:54;97655.38;;;10.34;100.00
18795;BME280;29610;49.022;12.114;2023-04-28T03:08:44;97659.38;;;10.37;100.00
18795;BME280;29610;49.022;12.114;2023-04-28T03:11:34;97641.47;;;10.27;100.00
18795;BME280;29610;49.022;12.114;2023-04-28T03:14:23;97649.78;;;10.30;100.00
18795;BME280;29610;49.022;12.114;2023-04-28T03:17:14;97649.16;;;10.33;100.00
18795;BME280;29610;49.022;12.114;2023-04-28T03:20:05;97645.16;;;10.40;100.00
18795;BME280;29610;49.022;12.114;2023-04-28T03:22:56;97649.44;;;10.41;100.00
18795;BME280;29610;49.022;12.114;2023-04-28T03:25:45;97640.66;;;10.44;100.00
18795;BME280;29610;49.022;12.114;2023-04-28T03:28:34;97635.25;;;10.35;100.00
18795;BME280;29610;49.022;12.114;2023-04-28T03:31:24;97624.84;;;10.46;100.00
18795;BME280;29610;49.022;12.114;2023-04-28T03:34:14;97634.13;;;10.45;100.00
18795;BME280;29610;49.022;12.114;2023-04-28T03:37:04;97642.09;;;10.41;100.00
18795;BME280;29610;49.022;12.114;2023-04-28T03:39:55;97636.84;;;10.45;100.00
18795;BME280;29610;49.022;12.114;2023-04-28T03:42:45;97619.88;;;10.48;100.00
18795;BME280;29610;49.022;12.114;2023-04-28T03:45:42;97616.88;;;10.32;100.00
18795;BME280;29610;49.022;12.114;2023-04-28T03:48:32;97607.13;;;10.40;100.00
18795;BME280;29610;49.022;12.114;2023-04-28T03:51:21;97614.63;;;10.51;100.00
18795;BME280;29610;49.022;12.114;2023-04-28T03:54:10;97616.53;;;10.51;100.00
18795;BME280;29610;49.022;12.114;2023-04-28T03:57:02;97612.34;;;10.53;100.00
18795;BME280;29610;49.022;12.114;2023-04-28T03:59:53;97605.66;;;10.42;100.00
18795;BME280;29610;49.022;12.114;2023-04-28T04:02:43;97601.69;;;10.48;100.00
18795;BME280;29610;49.022;12.114;2023-04-28T04:05:32;97612.50;;;10.57;100.00
18795;BME280;29610;49.022;12.114;2023-04-28T04:08:22;97603.59;;;10.56;100.00
18795;BME280;29610;49.022;12.114;2023-04-28T04:11:11;97596.69;;;10.50;100.00
18795;BME280;29610;49.022;12.114;2023-04-28T04:14:01;97606.31;;;10.48;100.00
18795;BME280;29610;49.022;12.114;2023-04-28T04:16:50;97605.00;;;10.54;100.00
18795;BME280;29610;49.022;12.114;2023-04-28T04:19:39;97593.47;;;10.65;100.00
18795;BME280;29610;49.022;12.114;2023-04-28T04:22:30;97597.59;;;10.80;100.00
18795;BME280;29610;49.022;12.114;2023-04-28T04:25:19;97602.88;;;10.85;100.00
18795;BME280;29610;49.022;12.114;2023-04-28T04:28:10;97594.53;;;10.90;100.00
18795;BME280;29610;49.022;12.114;2023-04-28T04:31:00;97578.66;;;10.92;100.00
18795;BME280;29610;49.022;12.114;2023-04-28T04:33:50;97588.25;;;10.98;100.00
18795;BME280;29610;49.022;12.114;2023-04-28T04:36:41;97587.13;;;10.99;100.00
18795;BME280;29610;49.022;12.114;2023-04-28T04:39:31;97592.97;;;11.18;100.00
18795;BME280;29610;49.022;12.114;2023-04-28T04:42:20;97575.94;;;11.00;100.00
18795;BME280;29610;49.022;12.114;2023-04-28T04:45:35;97579.78;;;10.99;100.00
18795;BME280;29610;49.022;12.114;2023-04-28T04:48:27;97582.28;;;11.04;100.00
18795;BME280;29610;49.022;12.114;2023-04-28T04:51:18;97582.59;;;11.11;100.00
18795;BME280;29610;49.022;12.114;2023-04-28T04:54:07;97575.41;;;11.07;100.00
18795;BME280;29610;49.022;12.114;2023-04-28T04:56:59;97578.63;;;11.09;100.00
18795;BME280;29610;49.022;12.114;2023-04-28T05:00:11;97589.16;;;11.10;100.00
18795;BME280;29610;49.022;12.114;2023-04-28T05:03:03;97590.25;;;11.18;100.00
18795;BME280;29610;49.022;12.114;2023-04-28T05:05:54;97584.63;;;11.23;100.00
18795;BME280;29610;49.022;12.114;2023-04-28T05:09:00;97574.31;;;11.37;100.00
18795;BME280;29610;49.022;12.114;2023-04-28T05:11:49;97561.38;;;11.34;100.00
18795;BME280;29610;49.022;12.114;2023-04-28T05:14:39;97561.69;;;11.61;100.00
18795;BME280;29610;49.022;12.114;2023-04-28T05:17:29;97552.06;;;11.64;100.00
18795;BME280;29610;49.022;12.114;2023-04-28T05:20:19;97562.72;;;11.98;100.00
18795;BME280;29610;49.022;12.114;2023-04-28T05:23:10;97574.03;;;12.00;100.00
18795;BME280;29610;49.022;12.114;2023-04-28T05:25:59;97576.56;;;12.05;100.00
18795;BME280;29610;49.022;12.114;2023-04-28T05:28:50;97579.81;;;11.99;100.00
18795;BME280;29610;49.022;12.114;2023-04-28T05:31:39;97572.13;;;11.80;100.00
18795;BME280;29610;49.022;12.114;2023-04-28T05:34:29;97563.44;;;11.87;100.00
18795;BME280;29610;49.022;12.114;2023-04-28T05:37:20;97565.97;;;12.24;100.00
18795;BME280;29610;49.022;12.114;2023-04-28T05:40:12;97558.28;;;12.26;100.00
18795;BME280;29610;49.022;12.114;2023-04-28T05:43:01;97564.13;;;12.16;100.00
18795;BME280;29610;49.022;12.114;2023-04-28T05:45:51;97560.75;;;12.52;100.00
18795;BME280;29610;49.022;12.114;2023-04-28T05:48:42;97571.06;;;12.46;100.00
18795;BME280;29610;49.022;12.114;2023-04-28T05:51:31;97582.22;;;12.53;100.00
18795;BME280;29610;49.022;12.114;2023-04-28T05:54:22;97578.53;;;12.37;100.00
18795;BME280;29610;49.022;12.114;2023-04-28T05:57:16;97591.63;;;12.44;100.00
18795;BME280;29610;49.022;12.114;2023-04-28T06:00:07;97595.38;;;12.51;100.00
18795;BME280;29610;49.022;12.114;2023-04-28T06:02:59;97591.56;;;12.64;100.00
18795;BME280;29610;49.022;12.114;2023-04-28T06:05:49;97585.47;;;12.79;100.00
18795;BME280;29610;49.022;12.114;2023-04-28T06:08:38;97586.91;;;12.65;100.00
18795;BME280;29610;49.022;12.114;2023-04-28T06:11:28;97580.19;;;12.62;100.00
18795;BME280;29610;49.022;12.114;2023-04-28T06:14:21;97584.19;;;12.77;100.00
18795;BME280;29610;49.022;12.114;2023-04-28T06:17:10;97583.91;;;12.46;100.00
18795;BME280;29610;49.022;12.114;2023-04-28T06:19:59;97577.38;;;12.71;100.00
18795;BME280;29610;49.022;12.114;2023-04-28T06:22:48;97582.28;;;12.77;100.00
18795;BME280;29610;49.022;12.114;2023-04-28T06:25:38;97577.56;;;12.54;100.00
18795;BME280;29610;49.022;12.114;2023-04-28T06:28:28;97580.53;;;12.61;100.00
18795;BME280;29610;49.022;12.114;2023-04-28T06:31:18;97565.88;;;12.65;100.00
18795;BME280;29610;49.022;12.114;2023-04-28T06:34:08;97561.91;;;12.63;100.00
18795;BME280;29610;49.022;12.114;2023-04-28T06:36:57;97560.25;;;12.38;100.00
18795;BME280;29610;49.022;12.114;2023-04-28T06:39:46;97552.63;;;12.31;100.00
18795;BME280;29610;49.022;12.114;2023-04-28T06:42:36;97551.78;;;12.19;100.00
18795;BME280;29610;49.022;12.114;2023-04-28T06:45:30;97543.72;;;12.22;100.00
18795;BME280;29610;49.022;12.114;2023-04-28T06:48:21;97540.34;;;12.25;100.00
18795;BME280;29610;49.022;12.114;2023-04-28T06:51:10;97551.16;;;12.34;100.00
18795;BME280;29610;49.022;12.114;2023-04-28T06:53:59;97542.53;;;12.32;100.00
18795;BME280;29610;49.022;12.114;2023-04-28T06:56:48;97558.81;;;12.20;100.00
18795;BME280;29610;49.022;12.114;2023-04-28T06:59:38;97559.44;;;12.37;100.00
18795;BME280;29610;49.022;12.114;2023-04-28T07:02:27;97573.84;;;12.58;100.00
18795;BME280;29610;49.022;12.114;2023-04-28T07:05:19;97585.44;;;12.67;100.00
18795;BME280;29610;49.022;12.114;2023-04-28T07:08:08;97587.94;;;12.60;100.00
18795;BME280;29610;49.022;12.114;2023-04-28T07:10:59;97597.28;;;12.83;100.00
18795;BME280;29610;49.022;12.114;2023-04-28T07:13:52;97596.81;;;12.81;100.00
18795;BME280;29610;49.022;12.114;2023-04-28T07:16:42;97600.09;;;13.19;100.00
18795;BME280;29610;49.022;12.114;2023-04-28T07:19:31;97591.59;;;13.33;100.00
18795;BME280;29610;49.022;12.114;2023-04-28T07:22:22;97583.06;;;13.23;100.00
18795;BME280;29610;49.022;12.114;2023-04-28T07:25:11;97594.78;;;13.35;100.00
18795;BME280;29610;49.022;12.114;2023-04-28T07:28:02;97588.97;;;13.61;100.00
18795;BME280;29610;49.022;12.114;2023-04-28T07:30:53;97594.00;;;13.98;100.00
18795;BME280;29610;49.022;12.114;2023-04-28T07:33:43;97595.13;;;14.09;100.00
18795;BME280;29610;49.022;12.114;2023-04-28T07:36:33;97588.97;;;14.24;100.00
18795;BME280;29610;49.022;12.114;2023-04-28T07:39:24;97589.72;;;14.25;100.00
18795;BME280;29610;49.022;12.114;2023-04-28T07:42:13;97588.13;;;14.24;100.00
18795;BME280;29610;49.022;12.114;2023-04-28T07:45:05;97587.31;;;13.96;100.00
18795;BME280;29610;49.022;12.114;2023-04-28T07:47:55;97584.84;;;13.67;100.00
18795;BME280;29610;49.022;12.114;2023-04-28T07:50:44;97579.66;;;13.50;100.00
18795;BME280;29610;49.022;12.114;2023-04-28T07:53:35;97588.28;;;13.64;100.00
18795;BME280;29610;49.022;12.114;2023-04-28T07:56:26;97586.09;;;13.45;100.00
18795;BME280;29610;49.022;12.114;2023-04-28T07:59:16;97585.53;;;13.27;100.00
18795;BME280;29610;49.022;12.114;2023-04-28T08:02:06;97581.91;;;13.11;100.00
18795;BME280;29610;49.022;12.114;2023-04-28T08:04:55;97577.91;;;12.97;100.00
18795;BME280;29610;49.022;12.114;2023-04-28T08:07:44;97572.38;;;13.17;100.00
18795;BME280;29610;49.022;12.114;2023-04-28T08:10:33;97577.16;;;13.20;100.00
18795;BME280;29610;49.022;12.114;2023-04-28T08:13:24;97578.59;;;13.18;100.00
18795;BME280;29610;49.022;12.114;2023-04-28T08:16:14;97572.81;;;13.44;100.00
18795;BME280;29610;49.022;12.114;2023-04-28T08:19:03;97565.16;;;13.61;100.00
18795;BME280;29610;49.022;12.114;2023-04-28T08:21:52;97569.94;;;13.76;100.00
18795;BME280;29610;49.022;12.114;2023-04-28T08:24:42;97566.66;;;13.59;100.00
18795;BME280;29610;49.022;12.114;2023-04-28T08:27:33;97570.66;;;13.25;100.00
18795;BME280;29610;49.022;12.114;2023-04-28T08:30:26;97564.97;;;13.06;100.00
18795;BME280;29610;49.022;12.114;2023-04-28T08:33:15;97563.66;;;12.79;100.00
18795;BME280;29610;49.022;12.114;2023-04-28T08:36:04;97557.75;;;12.89;100.00
18795;BME280;29610;49.022;12.114;2023-04-28T08:38:53;97573.16;;;13.06;100.00
18795;BME280;29610;49.022;12.114;2023-04-28T08:41:45;97566.13;;;13.05;100.00
18795;BME280;29610;49.022;12.114;2023-04-28T08:44:37;97561.22;;;13.10;100.00
18795;BME280;29610;49.022;12.114;2023-04-28T08:47:33;97572.59;;;13.24;100.00
18795;BME280;29610;49.022;12.114;2023-04-28T08:50:24;97567.94;;;13.25;100.00
18795;BME280;29610;49.022;12.114;2023-04-28T08:53:21;97576.56;;;13.27;100.00
18795;BME280;29610;49.022;12.114;2023-04-28T08:56:12;97573.03;;;13.27;100.00
18795;BME280;29610;49.022;12.114;2023-04-28T08:59:04;97567.13;;;13.12;100.00
18795;BME280;29610;49.022;12.114;2023-04-28T09:01:54;97577.91;;;13.09;100.00
18795;BME280;29610;49.022;12.114;2023-04-28T09:04:46;97570.88;;;13.20;100.00
18795;BME280;29610;49.022;12.114;2023-04-28T09:07:35;97579.97;;;13.36;100.00
18795;BME280;29610;49.022;12.114;2023-04-28T09:10:26;97571.34;;;13.46;100.00
18795;BME280;29610;49.022;12.114;2023-04-28T09:13:24;97570.88;;;13.56;100.00
18795;BME280;29610;49.022;12.114;2023-04-28T09:16:13;97572.38;;;13.42;100.00
18795;BME280;29610;49.022;12.114;2023-04-28T09:19:03;97578.03;;;13.12;100.00
18795;BME280;29610;49.022;12.114;2023-04-28T09:21:54;97582.47;;;13.05;100.00
18795;BME280;29610;49.022;12.114;2023-04-28T09:24:44;97580.22;;;13.19;100.00
18795;BME280;29610;49.022;12.114;2023-04-28T09:27:33;97575.22;;;13.21;100.00
18795;BME280;29610;49.022;12.114;2023-04-28T09:30:38;97576.34;;;13.08;100.00
18795;BME280;29610;49.022;12.114;2023-04-28T09:33:28;97565.16;;;12.89;100.00
18795;BME280;29610;49.022;12.114;2023-04-28T09:36:26;97554.41;;;13.04;100.00
18795;BME280;29610;49.022;12.114;2023-04-28T09:39:29;97540.53;;;13.21;100.00
18795;BME280;29610;49.022;12.114;2023-04-28T09:42:31;97533.47;;;13.20;100.00
18795;BME280;29610;49.022;12.114;2023-04-28T09:45:21;97523.03;;;13.23;100.00
18795;BME280;29610;49.022;12.114;2023-04-28T09:48:11;97531.06;;;13.31;100.00
18795;BME280;29610;49.022;12.114;2023-04-28T09:51:01;97532.22;;;13.06;100.00
18795;BME280;29610;49.022;12.114;2023-04-28T09:53:58;97521.41;;;13.21;100.00
18795;BME280;29610;49.022;12.114;2023-04-28T09:56:49;97513.59;;;13.32;100.00
18795;BME280;29610;49.022;12.114;2023-04-28T09:59:39;97511.34;;;13.62;100.00
18795;BME280;29610;49.022;12.114;2023-04-28T10:02:29;97518.19;;;13.95;100.00
18795;BME280;29610;49.022;12.114;2023-04-28T10:05:32;97511.69;;;14.00;100.00
18795;BME280;29610;49.022;12.114;2023-04-28T10:08:25;97495.38;;;13.48;100.00
18795;BME280;29610;49.022;12.114;2023-04-28T10:11:17;97496.50;;;13.35;100.00
18795;BME280;29610;49.022;12.114;2023-04-28T10:14:10;97501.72;;;13.52;100.00
18795;BME280;29610;49.022;12.114;2023-04-28T10:17:00;97500.13;;;13.51;100.00
18795;BME280;29610;49.022;12.114;2023-04-28T10:19:53;97492.94;;;13.59;100.00
18795;BME280;29610;49.022;12.114;2023-04-28T10:22:57;97485.78;;;13.42;100.00
18795;BME280;29610;49.022;12.114;2023-04-28T10:25:53;97481.41;;;13.26;100.00
18795;BME280;29610;49.022;12.114;2023-04-28T10:28:47;97495.28;;;13.20;100.00
18795;BME280;29610;49.022;12.114;2023-04-28T10:31:38;97495.75;;;13.23;100.00
18795;BME280;29610;49.022;12.114;2023-04-28T10:34:27;97504.28;;;13.21;100.00
18795;BME280;29610;49.022;12.114;2023-04-28T10:37:18;97506.19;;;13.08;100.00
18795;BME280;29610;49.022;12.114;2023-04-28T10:40:31;97501.88;;;12.95;100.00
18795;BME280;29610;49.022;12.114;2023-04-28T10:43:35;97496.84;;;12.97;100.00
18795;BME280;29610;49.022;12.114;2023-04-28T10:46:26;97485.72;;;13.02;100.00
18795;BME280;29610;49.022;12.114;2023-04-28T10:49:17;97482.09;;;12.98;100.00
18795;BME280;29610;49.022;12.114;2023-04-28T10:52:50;97471.16;;;12.98;100.00
18795;BME280;29610;49.022;12.114;2023-04-28T10:55:39;97467.91;;;13.05;100.00
18795;BME280;29610;49.022;12.114;2023-04-28T10:58:31;97462.34;;;13.01;100.00
18795;BME280;29610;49.022;12.114;2023-04-28T11:01:30;97463.09;;;13.02;100.00
18795;BME280;29610;49.022;12.114;2023-04-28T11:04:22;97456.88;;;13.01;100.00
18795;BME280;29610;49.022;12.114;2023-04-28T11:07:12;97460.63;;;13.21;100.00
18795;BME280;29610;49.022;12.114;2023-04-28T11:10:02;97464.31;;;13.41;100.00
18795;BME280;29610;49.022;12.114;2023-04-28T11:13:28;97454.81;;;13.62;100.00
18795;BME280;29610;49.022;12.114;2023-04-28T11:16:24;97448.63;;;14.20;100.00
18795;BME280;29610;49.022;12.114;2023-04-28T11:19:19;97447.66;;;14.40;100.00
18795;BME280;29610;49.022;12.114;2023-04-28T11:22:16;97449.88;;;14.66;100.00
18795;BME280;29610;49.022;12.114;2023-04-28T11:25:06;97444.81;;;14.84;100.00
18795;BME280;29610;49.022;12.114;2023-04-28T11:28:03;97448.03;;;15.20;100.00
18795;BME280;29610;49.022;12.114;2023-04-28T11:31:10;97441.66;;;15.16;100.00
18795;BME280;29610;49.022;12.114;2023-04-28T11:34:03;97433.25;;;14.90;100.00
18795;BME280;29610;49.022;12.114;2023-04-28T11:36:52;97426.53;;;14.88;100.00
18795;BME280;29610;49.022;12.114;2023-04-28T11:39:43;97442.78;;;14.65;100.00
18795;BME280;29610;49.022;12.114;2023-04-28T11:42:32;97434.69;;;14.53;100.00
18795;BME280;29610;49.022;12.114;2023-04-28T11:45:21;97431.00;;;14.45;100.00
18795;BME280;29610;49.022;12.114;2023-04-28T11:48:20;97441.56;;;14.62;100.00
18795;BME280;29610;49.022;12.114;2023-04-28T11:51:09;97453.47;;;14.54;100.00
18795;BME280;29610;49.022;12.114;2023-04-28T11:54:00;97437.19;;;14.15;100.00
18795;BME280;29610;49.022;12.114;2023-04-28T11:56:51;97421.03;;;14.10;100.00
18795;BME280;29610;49.022;12.114;2023-04-28T11:59:41;97434.97;;;14.20;100.00
18795;BME280;29610;49.022;12.114;2023-04-28T12:02:31;97434.59;;;14.06;100.00
18795;BME280;29610;49.022;12.114;2023-04-28T12:05:20;97427.09;;;14.03;100.00
18795;BME280;29610;49.022;12.114;2023-04-28T12:08:10;97445.53;;;14.06;100.00
18795;BME280;29610;49.022;12.114;2023-04-28T12:11:07;97431.09;;;14.21;100.00
18795;BME280;29610;49.022;12.114;2023-04-28T12:14:08;97432.81;;;14.26;100.00
18795;BME280;29610;49.022;12.114;2023-04-28T12:16:57;97441.63;;;14.35;100.00
18795;BME280;29610;49.022;12.114;2023-04-28T12:19:47;97441.13;;;14.29;100.00
18795;BME280;29610;49.022;12.114;2023-04-28T12:22:47;97446.28;;;14.34;100.00
18795;BME280;29610;49.022;12.114;2023-04-28T12:25:43;97453.88;;;14.25;100.00
18795;BME280;29610;49.022;12.114;2023-04-28T12:28:37;97455.75;;;14.37;100.00
18795;BME280;29610;49.022;12.114;2023-04-28T12:31:27;97461.59;;;14.51;100.00
18795;BME280;29610;49.022;12.114;2023-04-28T12:34:16;97472.97;;;14.53;100.00
18795;BME280;29610;49.022;12.114;2023-04-28T12:37:06;97471.81;;;14.54;100.00
18795;BME280;29610;49.022;12.114;2023-04-28T12:39:56;97469.28;;;14.61;100.00
18795;BME280;29610;49.022;12.114;2023-04-28T12:42:45;97459.28;;;14.68;100.00
18795;BME280;29610;49.022;12.114;2023-04-28T12:45:33;97460.34;;;14.48;100.00
18795;BME280;29610;49.022;12.114;2023-04-28T12:48:26;97462.75;;;14.65;100.00
18795;BME280;29610;49.022;12.114;2023-04-28T12:51:16;97459.56;;;14.63;100.00
18795;BME280;29610;49.022;12.114;2023-04-28T12:54:05;97457.25;;;14.65;100.00
18795;BME280;29610;49.022;12.114;2023-04-28T12:56:55;97457.50;;;14.76;100.00
18795;BME280;29610;49.022;12.114;2023-04-28T12:59:44;97448.78;;;14.86;100.00
18795;BME280;29610;49.022;12.114;2023-04-28T13:02:35;97449.03;;;14.97;100.00
18795;BME280;29610;49.022;12.114;2023-04-28T13:05:26;97444.88;;;15.03;100.00
18795;BME280;29610;49.022;12.114;2023-04-28T13:08:15;97442.25;;;15.06;100.00
18795;BME280;29610;49.022;12.114;2023-04-28T13:11:04;97439.19;;;15.11;100.00
18795;BME280;29610;49.022;12.114;2023-04-28T13:14:09;97442.69;;;15.27;100.00
18795;BME280;29610;49.022;12.114;2023-04-28T13:16:59;97440.19;;;15.19;100.00
18795;BME280;29610;49.022;12.114;2023-04-28T13:19:49;97441.47;;;15.25;100.00
18795;BME280;29610;49.022;12.114;2023-04-28T13:22:39;97441.47;;;15.40;100.00
18795;BME280;29610;49.022;12.114;2023-04-28T13:25:29;97436.28;;;15.54;100.00
18795;BME280;29610;49.022;12.114;2023-04-28T13:28:19;97437.28;;;15.65;100.00
18795;BME280;29610;49.022;12.114;2023-04-28T13:31:08;97423.84;;;15.76;100.00
18795;BME280;29610;49.022;12.114;2023-04-28T13:33:57;97419.19;;;15.80;100.00
18795;BME280;29610;49.022;12.114;2023-04-28T13:36:48;97416.69;;;15.71;100.00
18795;BME280;29610;49.022;12.114;2023-04-28T13:39:38;97418.47;;;16.02;100.00
18795;BME280;29610;49.022;12.114;2023-04-28T13:42:27;97405.66;;;16.29;100.00
18795;BME280;29610;49.022;12.114;2023-04-28T13:45:16;97399.88;;;16.34;100.00
18795;BME280;29610;49.022;12.114;2023-04-28T13:48:08;97402.59;;;16.53;100.00
18795;BME280;29610;49.022;12.114;2023-04-28T13:50:57;97410.59;;;16.42;100.00
18795;BME280;29610;49.022;12.114;2023-04-28T13:53:49;97407.06;;;16.42;100.00
18795;BME280;29610;49.022;12.114;2023-04-28T13:56:40;97386.31;;;15.99;100.00
18795;BME280;29610;49.022;12.114;2023-04-28T13:59:30;97382.13;;;16.05;100.00
18795;BME280;29610;49.022;12.114;2023-04-28T14:02:19;97396.34;;;15.91;100.00
18795;BME280;29610;49.022;12.114;2023-04-28T14:05:09;97393.25;;;15.74;100.00
18795;BME280;29610;49.022;12.114;2023-04-28T14:07:58;97400.63;;;15.35;100.00
18795;BME280;29610;49.022;12.114;2023-04-28T14:10:48;97392.34;;;15.47;100.00
18795;BME280;29610;49.022;12.114;2023-04-28T14:13:39;97398.31;;;15.53;100.00
18795;BME280;29610;49.022;12.114;2023-04-28T14:16:28;97382.22;;;15.51;100.00
18795;BME280;29610;49.022;12.114;2023-04-28T14:19:17;97401.44;;;15.36;100.00
18795;BME280;29610;49.022;12.114;2023-04-28T14:22:06;97397.28;;;15.42;100.00
18795;BME280;29610;49.022;12.114;2023-04-28T14:24:55;97400.16;;;15.14;100.00
18795;BME280;29610;49.022;12.114;2023-04-28T14:27:44;97395.63;;;15.03;100.00
18795;BME280;29610;49.022;12.114;2023-04-28T14:30:35;97395.78;;;15.10;100.00
18795;BME280;29610;49.022;12.114;2023-04-28T14:33:24;97405.88;;;15.06;100.00
18795;BME280;29610;49.022;12.114;2023-04-28T14:36:13;97392.38;;;14.97;100.00
18795;BME280;29610;49.022;12.114;2023-04-28T14:39:03;97378.97;;;14.92;100.00
18795;BME280;29610;49.022;12.114;2023-04-28T14:41:52;97384.06;;;15.09;100.00
18795;BME280;29610;49.022;12.114;2023-04-28T14:44:42;97386.47;;;15.14;100.00